KBKE/BKE METAR and TAF weather

Enter ICAO airport designator
Station Type Date Time Source
KBKE METAR 2022/01/29 13:53 UTC NOAA

KBKE 291353Z AUTO 00000KT 8SM CLR M15/M17 A3043 RMK AO2 SLP359 I1000 T11501167


Station Type Date Time Source
KBKE Decoded METAR 2022/01/29 13:53 UTC NOAA

BAKER MUNICIPAL AIRPORT, OR, United States (KBKE) 44-50N 117-49W 1024M
Jan 29, 2022 - 08:53 AM EST / 2022.01.29 1353 UTC
Wind: Calm:0
Visibility: 8 mile(s):0
Sky conditions: clear
Temperature: 5.0 F (-15.0 C)
Dew Point: 1.9 F (-16.7 C)
Relative Humidity: 86%
Pressure (altimeter): 30.43 in. Hg (1030 hPa)
ob: KBKE 291353Z AUTO 00000KT 8SM CLR M15/M17 A3043 RMK AO2 SLP359 I1000 T11501167
cycle: 14

Station Type Date Time Source
KBKE TAF 2022/01/29 12:22 UTC NOAA

TAF KBKE 291120Z 2912/3012 VRB05KT P6SM SKC

Example: see airport list